Time;durP1;ratioP1;P1;durP2;ratioP2;P2;SDS_P1;SDS_P2;PMS_P1;PMS_P2;Temp;Humidity;BMP_temperature;BMP_pressure;BME280_temperature;BME280_humidity;BME280_pressure;Samples;Min_cycle;Max_cycle;Signal;HPM_P1;HPM_P2
2022/07/27 00:02:20;;;;;;;;;;;15.00;99.90;;;;;;4998102;28;20439;-72
2022/07/27 00:04:46;;;;;;;;;;;14.90;99.90;;;;;;4964274;28;19943;-73
2022/07/27 00:07:11;;;;;;;;;;;14.80;99.90;;;;;;4991941;28;20116;-73
2022/07/27 00:09:37;;;;;;;;;;;14.80;99.90;;;;;;4998536;28;19913;-72
2022/07/27 00:12:02;;;;;;;;;;;14.70;99.90;;;;;;4995844;28;19925;-72
2022/07/27 00:14:28;;;;;;;;;;;14.70;99.90;;;;;;4995734;28;19913;-72
2022/07/27 00:16:54;;;;;;;;;;;14.70;99.90;;;;;;4987375;28;19924;-73
2022/07/27 00:19:19;;;;;;;;;;;14.70;99.90;;;;;;4977121;28;19917;-73
2022/07/27 00:21:45;;;;;;;;;;;14.60;99.90;;;;;;4972809;28;19964;-73
2022/07/27 00:24:10;;;;;;;;;;;14.60;99.90;;;;;;4993895;28;20407;-72
2022/07/27 00:26:36;;;;;;;;;;;14.50;99.90;;;;;;4639207;28;10000075;-73
2022/07/27 00:29:01;;;;;;;;;;;14.50;99.90;;;;;;4986457;28;19933;-73
2022/07/27 00:31:27;;;;;;;;;;;14.50;99.90;;;;;;4996050;28;19938;-72
2022/07/27 00:33:53;;;;;;;;;;;14.50;99.90;;;;;;4988321;28;19909;-72
2022/07/27 00:36:18;;;;;;;;;;;14.50;99.90;;;;;;4974905;28;20011;-72
2022/07/27 00:38:44;;;;;;;;;;;14.50;99.90;;;;;;4989350;28;19924;-72
2022/07/27 00:41:10;;;;;;;;;;;14.40;99.90;;;;;;4993132;28;19921;-73
2022/07/27 00:44:09;;;;;;;;;;;14.40;99.90;;;;;;4991420;28;19912;-73
2022/07/27 00:46:35;;;;;;;;;;;14.40;99.90;;;;;;4940266;28;19921;-73
2022/07/27 00:49:01;;;;;;;;;;;14.20;99.90;;;;;;4980312;28;19920;-72
2022/07/27 00:51:27;;;;;;;;;;;14.20;99.90;;;;;;4993139;28;19940;-73
2022/07/27 00:53:53;;;;;;;;;;;14.10;99.90;;;;;;4978201;28;20270;-72
2022/07/27 00:56:18;;;;;;;;;;;14.00;99.90;;;;;;4992339;28;19914;-73
2022/07/27 00:58:47;;;;;;;;;;;14.00;99.90;;;;;;4995982;28;19921;-73
2022/07/27 01:01:13;;;;;;;;;;;13.90;99.90;;;;;;4977472;28;19925;-73
2022/07/27 01:03:38;;;;;;;;;;;13.90;99.90;;;;;;4975018;28;20102;-73
2022/07/27 01:06:04;;;;;;;;;;;13.90;99.90;;;;;;4992753;28;19913;-73
2022/07/27 01:08:30;;;;;;;;;;;13.80;99.90;;;;;;4996718;28;20015;-73
2022/07/27 01:10:56;;;;;;;;;;;13.80;99.90;;;;;;4995648;28;20077;-72
2022/07/27 01:13:22;;;;;;;;;;;13.80;99.90;;;;;;4993748;28;20341;-73
2022/07/27 01:15:48;;;;;;;;;;;13.80;99.90;;;;;;4981592;28;19913;-72
2022/07/27 01:18:30;;;;;;;;;;;13.80;99.90;;;;;;4994727;28;19964;-73
2022/07/27 01:20:56;;;;;;;;;;;13.70;99.90;;;;;;4992409;28;19976;-72
2022/07/27 01:23:22;;;;;;;;;;;13.80;99.90;;;;;;4995114;28;19937;-72
2022/07/27 01:25:48;;;;;;;;;;;13.80;99.90;;;;;;4976313;28;19913;-73
2022/07/27 01:28:13;;;;;;;;;;;13.80;99.90;;;;;;4998211;28;19940;-72
2022/07/27 01:30:39;;;;;;;;;;;13.80;99.90;;;;;;4995508;28;19926;-73
2022/07/27 01:33:06;;;;;;;;;;;13.80;99.90;;;;;;4985448;28;19914;-72
2022/07/27 01:35:32;;;;;;;;;;;13.80;99.90;;;;;;4988885;28;20357;-73
2022/07/27 01:37:57;;;;;;;;;;;13.80;99.90;;;;;;4998547;28;20004;-73
2022/07/27 01:40:23;;;;;;;;;;;13.90;99.90;;;;;;4997883;28;19914;-73
2022/07/27 01:42:48;;;;;;;;;;;13.90;99.90;;;;;;5001077;28;19917;-72
2022/07/27 01:45:14;;;;;;;;;;;13.90;99.90;;;;;;4996772;28;20696;-73
2022/07/27 01:47:40;;;;;;;;;;;14.00;99.90;;;;;;5002401;28;19919;-72
2022/07/27 01:50:05;;;;;;;;;;;14.00;99.90;;;;;;4987745;28;20513;-73
2022/07/27 01:52:31;;;;;;;;;;;14.00;99.90;;;;;;4999281;28;19917;-72
2022/07/27 01:54:56;;;;;;;;;;;14.00;99.90;;;;;;4994597;28;20879;-73
2022/07/27 01:57:22;;;;;;;;;;;14.10;99.90;;;;;;4988639;28;20395;-73
2022/07/27 01:59:47;;;;;;;;;;;14.00;99.90;;;;;;4980894;28;20435;-72
2022/07/27 02:02:14;;;;;;;;;;;14.10;99.90;;;;;;4978881;28;19921;-72
2022/07/27 02:04:40;;;;;;;;;;;14.10;99.90;;;;;;4968897;28;19913;-73
2022/07/27 02:07:06;;;;;;;;;;;14.10;99.90;;;;;;4993038;28;19974;-73
2022/07/27 02:09:32;;;;;;;;;;;14.10;99.90;;;;;;4993990;28;20031;-73
2022/07/27 02:14:42;;;;;;;;;;;14.10;99.90;;;;;;4993419;28;19924;-72
2022/07/27 02:17:07;;;;;;;;;;;14.10;99.90;;;;;;4998142;28;20003;-73
2022/07/27 02:19:33;;;;;;;;;;;14.00;99.90;;;;;;4991650;28;19913;-73
2022/07/27 02:21:58;;;;;;;;;;;14.00;99.90;;;;;;4998435;28;19921;-72
2022/07/27 02:24:24;;;;;;;;;;;14.10;99.90;;;;;;4997022;28;19917;-73
2022/07/27 02:26:49;;;;;;;;;;;14.10;99.90;;;;;;4977262;28;19936;-72
2022/07/27 02:29:15;;;;;;;;;;;14.00;99.90;;;;;;4999188;28;19936;-72
2022/07/27 02:31:41;;;;;;;;;;;14.00;99.90;;;;;;4999363;28;19913;-72
2022/07/27 02:34:06;;;;;;;;;;;14.00;99.90;;;;;;4995844;28;19921;-72
2022/07/27 02:36:32;;;;;;;;;;;14.00;99.90;;;;;;4986110;28;20000;-71
2022/07/27 02:38:57;;;;;;;;;;;13.90;99.90;;;;;;4977317;28;19914;-72
2022/07/27 02:41:23;;;;;;;;;;;14.00;99.90;;;;;;4998184;28;19925;-72
2022/07/27 02:43:49;;;;;;;;;;;14.00;99.90;;;;;;4998533;28;19917;-72
2022/07/27 02:46:14;;;;;;;;;;;13.90;99.90;;;;;;4974448;28;20284;-72
2022/07/27 02:48:40;;;;;;;;;;;14.00;99.90;;;;;;4988284;28;19913;-72
2022/07/27 02:51:05;;;;;;;;;;;14.00;99.90;;;;;;4992315;28;19924;-72
2022/07/27 02:53:31;;;;;;;;;;;14.00;99.90;;;;;;4996082;28;20416;-72
2022/07/27 02:55:57;;;;;;;;;;;14.00;99.90;;;;;;4996133;28;20660;-73
2022/07/27 02:58:23;;;;;;;;;;;14.10;99.90;;;;;;4999274;28;19913;-72
2022/07/27 03:00:48;;;;;;;;;;;14.10;99.90;;;;;;4998466;28;19924;-72
2022/07/27 03:03:14;;;;;;;;;;;14.10;99.90;;;;;;5000061;28;19913;-72
2022/07/27 03:05:40;;;;;;;;;;;14.10;99.90;;;;;;4980882;28;20008;-72
2022/07/27 03:08:05;;;;;;;;;;;14.10;99.90;;;;;;4995829;28;19933;-72
2022/07/27 03:10:31;;;;;;;;;;;14.10;99.90;;;;;;4981036;28;19961;-72
2022/07/27 03:12:57;;;;;;;;;;;14.10;99.90;;;;;;4981339;28;19956;-72
2022/07/27 03:15:23;;;;;;;;;;;14.10;99.90;;;;;;4997971;28;19913;-72
2022/07/27 03:17:48;;;;;;;;;;;14.10;99.90;;;;;;4982215;28;19950;-72
2022/07/27 03:20:14;;;;;;;;;;;14.10;99.90;;;;;;4998828;28;20004;-72
2022/07/27 03:22:39;;;;;;;;;;;14.00;99.90;;;;;;5000213;28;19917;-72
2022/07/27 03:25:05;;;;;;;;;;;14.00;99.90;;;;;;4996847;28;20284;-72
2022/07/27 03:27:31;;;;;;;;;;;14.10;99.90;;;;;;4991492;28;19913;-72
2022/07/27 03:29:56;;;;;;;;;;;14.00;99.90;;;;;;4990377;28;19929;-72
2022/07/27 03:32:22;;;;;;;;;;;14.10;99.90;;;;;;4987546;28;20317;-73
2022/07/27 03:34:47;;;;;;;;;;;14.00;99.90;;;;;;4998154;28;21825;-72
2022/07/27 03:37:15;;;;;;;;;;;14.00;99.90;;;;;;4997444;28;20336;-72
2022/07/27 03:39:41;;;;;;;;;;;14.00;99.90;;;;;;4991800;28;19924;-72
2022/07/27 03:42:06;;;;;;;;;;;14.00;99.90;;;;;;4998653;28;19994;-72
2022/07/27 03:44:32;;;;;;;;;;;14.00;99.90;;;;;;4996585;28;19914;-72
2022/07/27 03:46:57;;;;;;;;;;;14.10;99.90;;;;;;4998160;28;20356;-72
2022/07/27 03:49:23;;;;;;;;;;;14.10;99.90;;;;;;4986443;28;19932;-71
2022/07/27 03:51:49;;;;;;;;;;;14.10;99.90;;;;;;4979905;28;19917;-72
2022/07/27 03:54:16;;;;;;;;;;;14.10;99.90;;;;;;4975640;28;19963;-72
2022/07/27 03:56:42;;;;;;;;;;;14.00;99.90;;;;;;4978330;28;19959;-72
2022/07/27 03:59:08;;;;;;;;;;;14.00;99.90;;;;;;4980098;28;19913;-72
2022/07/27 04:01:34;;;;;;;;;;;14.00;99.90;;;;;;4981169;28;20538;-72
2022/07/27 04:03:59;;;;;;;;;;;14.00;99.90;;;;;;4971328;28;19963;-72
2022/07/27 04:06:25;;;;;;;;;;;14.00;99.90;;;;;;4996795;28;19921;-72
2022/07/27 04:08:51;;;;;;;;;;;14.00;99.90;;;;;;4981100;28;19913;-72
2022/07/27 04:11:16;;;;;;;;;;;13.90;99.90;;;;;;4999393;28;19948;-72
2022/07/27 04:13:42;;;;;;;;;;;13.80;99.90;;;;;;4977872;28;20400;-72
2022/07/27 04:16:08;;;;;;;;;;;13.80;99.90;;;;;;4978322;28;19913;-72
2022/07/27 04:18:33;;;;;;;;;;;13.70;99.90;;;;;;4993381;28;20008;-72
2022/07/27 04:21:02;;;;;;;;;;;13.70;99.90;;;;;;4997015;28;20296;-73
2022/07/27 04:23:27;;;;;;;;;;;13.70;99.90;;;;;;4996177;28;20749;-73
2022/07/27 04:25:53;;;;;;;;;;;13.70;99.90;;;;;;4989442;28;20013;-72
2022/07/27 04:28:19;;;;;;;;;;;13.70;99.90;;;;;;4979939;28;20327;-72
2022/07/27 04:30:44;;;;;;;;;;;13.70;99.90;;;;;;4991164;28;19913;-73
2022/07/27 04:33:10;;;;;;;;;;;13.70;99.90;;;;;;4993387;28;19989;-72
2022/07/27 04:35:35;;;;;;;;;;;13.70;99.90;;;;;;4993638;28;19913;-72
2022/07/27 04:38:01;;;;;;;;;;;13.70;99.90;;;;;;4995210;28;19913;-73
2022/07/27 04:40:31;;;;;;;;;;;13.70;99.90;;;;;;4979636;28;20012;-72
2022/07/27 04:42:56;;;;;;;;;;;13.60;99.90;;;;;;4990059;28;19917;-72
2022/07/27 04:45:22;;;;;;;;;;;13.50;99.90;;;;;;4989683;28;19963;-72
2022/07/27 04:47:47;;;;;;;;;;;13.50;99.90;;;;;;4980035;28;19918;-72
2022/07/27 04:50:13;;;;;;;;;;;13.60;99.90;;;;;;4981928;28;19980;-72
2022/07/27 04:52:38;;;;;;;;;;;13.60;99.90;;;;;;4986576;28;19971;-72
2022/07/27 04:55:04;;;;;;;;;;;13.60;99.90;;;;;;4994522;28;19920;-72
2022/07/27 04:57:30;;;;;;;;;;;13.60;99.90;;;;;;4979399;28;19913;-73
2022/07/27 04:59:55;;;;;;;;;;;13.70;99.90;;;;;;4998209;28;20449;-73
2022/07/27 05:02:21;;;;;;;;;;;13.70;99.90;;;;;;4994312;28;20000;-72
2022/07/27 05:04:46;;;;;;;;;;;13.80;99.90;;;;;;4993467;28;20440;-72
2022/07/27 05:07:12;;;;;;;;;;;13.80;99.90;;;;;;4959276;28;20409;-72
2022/07/27 05:09:37;;;;;;;;;;;13.90;99.90;;;;;;4985356;28;19917;-72
2022/07/27 05:12:03;;;;;;;;;;;14.00;99.90;;;;;;4973194;28;19917;-73
2022/07/27 05:14:28;;;;;;;;;;;14.00;99.90;;;;;;4995921;28;19913;-72
2022/07/27 05:16:54;;;;;;;;;;;14.00;99.90;;;;;;4977603;28;19920;-72
2022/07/27 05:19:21;;;;;;;;;;;14.10;99.90;;;;;;4991072;28;20358;-72
2022/07/27 05:21:46;;;;;;;;;;;14.20;99.90;;;;;;4995745;28;19960;-72
2022/07/27 05:24:12;;;;;;;;;;;14.30;99.90;;;;;;4990032;28;19996;-72
2022/07/27 05:26:37;;;;;;;;;;;14.40;99.90;;;;;;4986914;28;20012;-72
2022/07/27 05:29:03;;;;;;;;;;;14.50;99.90;;;;;;4976494;28;19924;-73
2022/07/27 05:31:28;;;;;;;;;;;14.60;99.90;;;;;;4983797;28;20003;-73
2022/07/27 05:33:54;;;;;;;;;;;14.70;99.90;;;;;;4982294;28;19913;-73
2022/07/27 05:36:20;;;;;;;;;;;14.80;99.90;;;;;;4994255;28;20019;-72
2022/07/27 05:38:45;;;;;;;;;;;14.90;99.90;;;;;;4994156;28;19914;-73
2022/07/27 05:41:11;;;;;;;;;;;15.00;99.90;;;;;;4969667;28;20008;-72
2022/07/27 05:43:36;;;;;;;;;;;15.10;99.90;;;;;;4995492;28;19917;-73
2022/07/27 05:46:02;;;;;;;;;;;15.30;99.90;;;;;;4996373;28;20016;-72
2022/07/27 05:48:27;;;;;;;;;;;15.40;99.90;;;;;;4995503;28;20277;-72
2022/07/27 05:50:53;;;;;;;;;;;15.50;99.90;;;;;;4991753;28;20062;-73
2022/07/27 05:53:19;;;;;;;;;;;15.70;99.90;;;;;;4992066;28;19918;-73
2022/07/27 05:55:44;;;;;;;;;;;15.80;99.90;;;;;;4994774;28;19920;-72
2022/07/27 05:58:10;;;;;;;;;;;16.00;99.90;;;;;;4993154;28;19959;-72
2022/07/27 06:00:35;;;;;;;;;;;16.10;99.90;;;;;;4971586;28;19921;-72
2022/07/27 06:03:01;;;;;;;;;;;16.30;99.90;;;;;;4987477;28;19913;-73
2022/07/27 06:05:26;;;;;;;;;;;16.50;99.90;;;;;;4991080;28;20059;-73
2022/07/27 06:07:58;;;;;;;;;;;16.70;99.90;;;;;;4975287;28;20044;-72
2022/07/27 06:10:25;;;;;;;;;;;16.80;99.90;;;;;;4995084;28;21299;-73
2022/07/27 06:12:50;;;;;;;;;;;16.90;99.90;;;;;;4996807;28;19920;-73
2022/07/27 06:15:18;;;;;;;;;;;17.10;99.90;;;;;;4997892;28;19910;-72
2022/07/27 06:17:45;;;;;;;;;;;17.30;99.90;;;;;;4985058;28;19913;-73
2022/07/27 06:20:11;;;;;;;;;;;17.40;99.90;;;;;;4991830;28;19913;-73
2022/07/27 06:23:03;;;;;;;;;;;17.60;99.90;;;;;;4991555;28;19932;-72
2022/07/27 06:25:31;;;;;;;;;;;17.80;99.90;;;;;;4984960;28;20426;-73
2022/07/27 06:27:57;;;;;;;;;;;18.00;99.90;;;;;;4987920;28;19914;-73
2022/07/27 06:30:22;;;;;;;;;;;18.10;99.90;;;;;;4974708;28;19935;-73
2022/07/27 06:32:48;;;;;;;;;;;18.30;99.90;;;;;;4971430;28;19913;-73
2022/07/27 06:35:14;;;;;;;;;;;18.40;99.90;;;;;;4995707;28;19917;-73
2022/07/27 06:37:42;;;;;;;;;;;18.70;99.90;;;;;;4974677;28;20525;-72
2022/07/27 06:40:12;;;;;;;;;;;18.70;99.90;;;;;;4994992;28;19941;-73
2022/07/27 06:42:39;;;;;;;;;;;18.80;99.90;;;;;;4987027;28;19932;-73
2022/07/27 06:45:05;;;;;;;;;;;18.70;99.90;;;;;;4977330;28;20152;-73
2022/07/27 06:47:32;;;;;;;;;;;18.60;99.90;;;;;;4998353;28;19909;-72
2022/07/27 06:49:58;;;;;;;;;;;18.60;99.90;;;;;;4993000;28;20040;-72
2022/07/27 06:52:23;;;;;;;;;;;18.60;99.90;;;;;;4973788;28;20761;-73
2022/07/27 06:54:49;;;;;;;;;;;18.70;99.90;;;;;;4988985;28;19913;-72
2022/07/27 06:57:15;;;;;;;;;;;18.70;99.90;;;;;;4988950;28;19917;-73
2022/07/27 06:59:40;;;;;;;;;;;18.90;99.90;;;;;;4977110;28;19920;-73
2022/07/27 07:02:06;;;;;;;;;;;19.00;99.90;;;;;;4972436;28;19952;-73
2022/07/27 07:04:32;;;;;;;;;;;19.10;99.90;;;;;;4987560;28;19921;-73
2022/07/27 07:06:59;;;;;;;;;;;19.10;99.90;;;;;;4969297;28;20551;-73
2022/07/27 07:09:26;;;;;;;;;;;19.30;99.90;;;;;;4987868;28;19921;-74
2022/07/27 07:11:51;;;;;;;;;;;19.30;99.90;;;;;;4987856;28;19996;-72
2022/07/27 07:14:17;;;;;;;;;;;19.00;99.90;;;;;;4983216;28;20059;-73
2022/07/27 07:16:42;;;;;;;;;;;19.00;99.90;;;;;;4624046;28;9999994;-73
2022/07/27 07:19:09;;;;;;;;;;;19.10;99.90;;;;;;4953012;28;19987;-72
2022/07/27 07:21:34;;;;;;;;;;;19.10;99.90;;;;;;4984049;28;19929;-72
2022/07/27 07:24:00;;;;;;;;;;;19.00;99.90;;;;;;4980603;28;20316;-72
2022/07/27 07:26:25;;;;;;;;;;;19.00;99.90;;;;;;4986744;28;19967;-72
2022/07/27 07:28:51;;;;;;;;;;;19.00;99.90;;;;;;4954150;28;19913;-72
2022/07/27 07:31:19;;;;;;;;;;;19.30;99.90;;;;;;4956740;28;20545;-73
2022/07/27 07:33:44;;;;;;;;;;;19.50;99.90;;;;;;4969111;28;19917;-72
2022/07/27 07:36:10;;;;;;;;;;;19.60;99.90;;;;;;4978309;28;19995;-72
2022/07/27 07:38:35;;;;;;;;;;;19.70;99.90;;;;;;4977544;28;19920;-70
2022/07/27 07:41:01;;;;;;;;;;;20.10;99.90;;;;;;4984345;28;19936;-70
2022/07/27 07:43:27;;;;;;;;;;;20.60;99.90;;;;;;4986572;28;19928;-70
2022/07/27 07:45:54;;;;;;;;;;;21.00;99.90;;;;;;4984407;28;20968;-70
2022/07/27 07:48:20;;;;;;;;;;;21.50;99.90;;;;;;4986960;28;19960;-70
2022/07/27 07:50:46;;;;;;;;;;;22.10;99.90;;;;;;4987929;28;19979;-70
2022/07/27 07:53:13;;;;;;;;;;;22.70;99.90;;;;;;4988805;28;20335;-73
2022/07/27 07:55:39;;;;;;;;;;;22.60;99.90;;;;;;4984249;28;19914;-73
2022/07/27 07:58:04;;;;;;;;;;;22.30;99.90;;;;;;4985150;28;19924;-73
2022/07/27 08:00:30;;;;;;;;;;;21.90;99.90;;;;;;4987309;28;20055;-78
2022/07/27 08:02:56;;;;;;;;;;;21.50;99.90;;;;;;4987606;28;19917;-75
2022/07/27 08:05:22;;;;;;;;;;;21.50;99.90;;;;;;4985533;28;19920;-77
2022/07/27 08:07:48;;;;;;;;;;;21.70;99.90;;;;;;4995618;28;19932;-79
2022/07/27 08:10:14;;;;;;;;;;;22.80;99.90;;;;;;4987585;28;19921;-75
2022/07/27 08:12:42;;;;;;;;;;;22.90;99.90;;;;;;4990449;28;19928;-75
2022/07/27 08:15:08;;;;;;;;;;;22.60;99.90;;;;;;4990335;28;20107;-74
2022/07/27 08:17:34;;;;;;;;;;;22.50;99.90;;;;;;4990343;28;20683;-74
2022/07/27 08:20:00;;;;;;;;;;;22.30;99.90;;;;;;4983542;28;19917;-79
2022/07/27 08:22:25;;;;;;;;;;;22.80;99.90;;;;;;4987708;28;19921;-75
2022/07/27 08:24:52;;;;;;;;;;;24.00;99.90;;;;;;4984581;28;20349;-75
2022/07/27 08:27:17;;;;;;;;;;;28.10;99.90;;;;;;4987662;28;19917;-77
2022/07/27 08:29:43;;;;;;;;;;;31.00;90.40;;;;;;4991657;28;19914;-78
2022/07/27 08:32:09;;;;;;;;;;;32.60;66.70;;;;;;4997166;28;20444;-74
2022/07/27 08:34:34;;;;;;;;;;;32.70;57.60;;;;;;4994236;28;19913;-76
2022/07/27 08:37:00;;;;;;;;;;;34.40;55.00;;;;;;4992194;28;19914;-74
2022/07/27 08:39:25;;;;;;;;;;;33.00;54.30;;;;;;4997039;28;19914;-72
2022/07/27 08:41:52;;;;;;;;;;;32.10;55.10;;;;;;4989881;28;19922;-72
2022/07/27 08:44:19;;;;;;;;;;;32.30;57.80;;;;;;4989738;28;20815;-74
2022/07/27 08:46:45;;;;;;;;;;;31.20;53.20;;;;;;4987712;28;20374;-75
2022/07/27 08:49:11;;;;;;;;;;;31.60;57.20;;;;;;4975457;28;19917;-71
2022/07/27 08:51:37;;;;;;;2.78;0.40;;;32.20;51.90;;;;;;4980592;28;20397;-72
2022/07/27 08:54:03;;;;;;;3.28;0.60;;;33.10;52.10;;;;;;4989398;28;20105;-72
2022/07/27 08:56:28;;;;;;;;;;;35.40;53.70;;;;;;4971481;28;20038;-73
2022/07/27 08:58:54;;;;;;;;;;;36.00;41.70;;;;;;4993145;28;19956;-74
2022/07/27 09:01:19;;;;;;;;;;;34.80;41.50;;;;;;4953158;28;19928;-73
2022/07/27 09:03:45;;;;;;;;;;;33.10;43.00;;;;;;4982475;28;19925;-72
2022/07/27 09:06:10;;;;;;;;;;;31.30;45.40;;;;;;4978408;28;19914;-75
2022/07/27 09:08:40;;;;;;;;;;;29.80;50.40;;;;;;4973157;28;19932;-72
2022/07/27 09:11:14;;;;;;;;;;;28.70;51.60;;;;;;4981464;28;20393;-72
2022/07/27 09:13:40;;;;;;;;;;;27.70;55.20;;;;;;4990703;28;19958;-72
2022/07/27 09:16:07;;;;;;;;;;;27.10;63.20;;;;;;4970295;28;20000;-72
2022/07/27 09:18:34;;;;;;;;;;;26.60;65.60;;;;;;4986516;28;19914;-73
2022/07/27 09:21:17;;;;;;;;;;;26.00;69.90;;;;;;4963306;28;19917;-72
2022/07/27 09:23:49;;;;;;;2.83;0.65;;;25.60;79.30;;;;;;4983976;28;19952;-71
2022/07/27 09:26:16;;;;;;;;;;;25.20;77.70;;;;;;4979959;28;20038;-70
2022/07/27 09:28:42;;;;;;;;;;;25.00;80.40;;;;;;4985562;28;19949;-72
2022/07/27 09:31:09;;;;;;;;;;;24.70;90.70;;;;;;4985141;28;20135;-70
2022/07/27 09:33:41;;;;;;;;;;;24.30;94.20;;;;;;4984898;28;19913;-71
2022/07/27 09:36:07;;;;;;;;;;;24.20;92.50;;;;;;4977268;28;19972;-70
2022/07/27 09:38:32;;;;;;;;;;;24.20;93.50;;;;;;4980373;28;19996;-71
2022/07/27 09:40:59;;;;;;;;;;;24.20;91.80;;;;;;4979575;28;20016;-70
2022/07/27 09:43:25;;;;;;;;;;;24.10;91.70;;;;;;4981405;28;20021;-71
2022/07/27 09:45:52;;;;;;;;;;;24.30;93.80;;;;;;4983330;28;19928;-72
2022/07/27 09:48:19;;;;;;;;;;;24.70;92.70;;;;;;4987657;28;19917;-71
2022/07/27 09:51:05;;;;;;;;;;;25.00;81.70;;;;;;4989404;28;19913;-77
2022/07/27 09:53:31;;;;;;;;;;;25.70;74.90;;;;;;4990664;28;19919;-72
2022/07/27 09:56:16;;;;;;;;;;;26.40;73.50;;;;;;4989476;28;19921;-72
2022/07/27 09:58:43;;;;;;;;;;;26.70;70.60;;;;;;4990350;28;20005;-73
2022/07/27 10:01:11;;;;;;;;;;;27.50;68.60;;;;;;4970879;28;19980;-73
2022/07/27 10:03:37;;;;;;;;;;;28.30;65.50;;;;;;4993014;28;19924;-73
2022/07/27 10:06:03;;;;;;;0.98;0.80;;;28.40;67.00;;;;;;4995050;28;20906;-72
2022/07/27 10:08:29;;;;;;;1.90;0.68;;;27.90;62.00;;;;;;4992342;28;20041;-73
2022/07/27 10:10:56;;;;;;;3.88;0.52;;;27.90;64.10;;;;;;4976944;28;20481;-73
2022/07/27 10:13:23;;;;;;;1.92;0.60;;;27.50;65.20;;;;;;4998158;28;20021;-72
2022/07/27 10:15:49;;;;;;;2.60;0.55;;;27.50;67.00;;;;;;4993782;28;20501;-73
2022/07/27 10:18:21;;;;;;;5.45;0.82;;;27.60;64.50;;;;;;4964983;28;20041;-73
2022/07/27 10:20:47;;;;;;;3.67;0.52;;;27.40;67.30;;;;;;4982471;28;20040;-72
2022/07/27 10:23:27;;;;;;;2.17;0.50;;;27.30;70.10;;;;;;4956857;28;20677;-73
2022/07/27 10:26:11;;;;;;;3.35;0.52;;;27.30;64.80;;;;;;4984763;28;20045;-73
2022/07/27 10:28:50;;;;;;;2.83;0.50;;;27.00;67.10;;;;;;4985192;28;20850;-73
2022/07/27 10:31:18;;;;;;;1.50;0.40;;;27.10;68.70;;;;;;4988781;28;20494;-72
2022/07/27 10:33:47;;;;;;;3.60;0.55;;;27.10;61.30;;;;;;4991189;28;20057;-72
2022/07/27 10:36:36;;;;;;;3.47;0.70;;;27.30;66.00;;;;;;4987653;28;20458;-73
2022/07/27 10:39:06;;;;;;;2.45;0.85;;;27.30;64.70;;;;;;4960315;28;20125;-72
2022/07/27 10:41:40;;;;;;;3.25;0.90;;;27.30;62.00;;;;;;4997293;28;20042;-73
2022/07/27 10:44:17;;;;;;;3.08;0.75;;;26.90;68.90;;;;;;4988413;28;20034;-72
2022/07/27 10:46:50;;;;;;;2.53;0.73;;;27.10;66.20;;;;;;4994900;28;20034;-73
2022/07/27 10:49:20;;;;;;;2.95;0.43;;;27.30;60.00;;;;;;4995745;28;20030;-73
2022/07/27 10:51:47;;;;;;;2.70;0.70;;;27.70;67.00;;;;;;4998280;28;20034;-73
2022/07/27 10:54:25;;;;;;;4.18;1.00;;;27.70;63.30;;;;;;4999319;28;20034;-72
2022/07/27 10:56:54;;;;;;;6.30;1.15;;;27.80;61.90;;;;;;4989018;28;20121;-72
2022/07/27 10:59:38;;;;;;;1.50;0.60;;;27.70;65.80;;;;;;4998640;28;20213;-72
2022/07/27 11:02:06;;;;;;;3.35;0.75;;;27.60;61.70;;;;;;4996278;28;20512;-72
2022/07/27 11:04:33;;;;;;;4.90;1.15;;;27.30;65.80;;;;;;4997785;28;20401;-72
2022/07/27 11:07:00;;;;;;;2.83;0.70;;;26.80;66.10;;;;;;4292733;28;9999929;-72
2022/07/27 11:09:41;;;;;;;3.35;0.60;;;26.40;69.70;;;;;;4988560;28;20061;-72
2022/07/27 11:12:09;;;;;;;8.07;0.77;;;26.50;70.60;;;;;;4991030;28;20048;-72
2022/07/27 11:14:45;;;;;;;1.50;0.70;;;26.30;70.30;;;;;;4994865;28;20030;-72
2022/07/27 11:17:11;;;;;;;3.80;1.10;;;26.70;71.90;;;;;;4977961;28;20041;-72
2022/07/27 11:19:37;;;;;;;4.53;0.80;;;27.00;75.00;;;;;;4991595;28;20559;-72
2022/07/27 11:22:03;;;;;;;3.60;0.63;;;27.50;64.70;;;;;;4983492;28;20108;-72
2022/07/27 11:24:29;;;;;;;5.20;0.80;;;28.00;64.90;;;;;;4987290;28;20497;-72
2022/07/27 11:26:54;;;;;;;2.17;0.60;;;28.00;67.80;;;;;;4992419;28;20072;-72
2022/07/27 11:29:22;;;;;;;2.88;1.08;;;29.20;65.30;;;;;;4976998;28;20030;-73
2022/07/27 11:31:50;;;;;;;2.25;0.50;;;29.60;57.50;;;;;;4986830;28;20084;-72
2022/07/27 11:34:17;;;;;;;3.33;0.60;;;29.50;59.30;;;;;;4990418;28;20026;-73
2022/07/27 11:36:49;;;;;;;4.53;0.60;;;29.80;55.10;;;;;;4984753;28;20252;-73
2022/07/27 11:39:24;;;;;;;3.75;0.45;;;29.80;62.30;;;;;;4985661;28;20030;-71
2022/07/27 11:41:54;;;;;;;1.77;0.45;;;29.70;58.10;;;;;;4987343;28;20882;-71
2022/07/27 11:44:19;;;;;;;4.47;0.88;;;28.90;53.20;;;;;;4978990;28;20393;-71
2022/07/27 11:46:46;;;;;;;2.53;0.50;;;29.10;54.10;;;;;;4980762;28;20050;-71
2022/07/27 11:49:15;;;;;;;4.13;0.80;;;29.60;54.00;;;;;;4993660;28;20021;-71
2022/07/27 11:51:42;;;;;;;3.28;0.68;;;30.00;57.20;;;;;;4991294;28;20076;-71
2022/07/27 11:54:29;;;;;;;2.63;0.88;;;29.80;53.20;;;;;;4984816;28;20026;-71
2022/07/27 11:56:59;;;;;;;3.90;0.80;;;29.30;54.70;;;;;;4971480;28;20137;-71
2022/07/27 11:59:30;;;;;;;2.45;1.02;;;29.30;52.90;;;;;;4995428;28;20571;-72
2022/07/27 12:01:57;;;;;;;1.58;0.60;;;29.90;52.40;;;;;;4646687;28;10000442;-72
2022/07/27 12:04:37;;;;;;;3.42;0.60;;;30.10;56.50;;;;;;4987274;28;20038;-71
2022/07/27 12:07:10;;;;;;;3.58;0.80;;;29.80;52.00;;;;;;4980696;28;20042;-72
2022/07/27 12:09:44;;;;;;;2.85;0.65;;;29.20;50.90;;;;;;4988953;28;20160;-72
2022/07/27 12:12:21;;;;;;;2.35;0.70;;;28.60;55.60;;;;;;4987129;28;20034;-70
2022/07/27 12:14:50;;;;;;;2.42;1.00;;;27.90;52.80;;;;;;4969094;28;20038;-72
2022/07/27 12:17:29;;;;;;;2.35;0.95;;;27.20;55.70;;;;;;4985014;28;20057;-71
2022/07/27 12:20:00;;;;;;;2.92;0.85;;;26.90;60.40;;;;;;4987552;28;20050;-73
2022/07/27 12:22:38;;;;;;;3.57;0.80;;;26.80;57.10;;;;;;4979619;28;20104;-73
2022/07/27 12:25:15;;;;;;;3.55;0.80;;;27.00;56.80;;;;;;4977229;28;20500;-75
2022/07/27 12:27:53;;;;;;;0.65;0.52;;;27.60;61.30;;;;;;4974417;28;20041;-75
2022/07/27 12:30:45;;;;;;;4.07;0.57;;;28.10;58.30;;;;;;4984800;28;19917;-71
2022/07/27 12:33:35;;;;;;;3.90;1.33;;;28.10;53.20;;;;;;4978652;28;20059;-70
2022/07/27 12:36:04;;;;;;;3.93;0.93;;;28.40;57.30;;;;;;4964409;28;20026;-70
2022/07/27 12:38:42;;;;;;;2.60;0.60;;;28.30;52.80;;;;;;4977281;28;20252;-70
2022/07/27 12:41:08;;;;;;;2.88;0.50;;;28.20;54.60;;;;;;4972309;28;20093;-70
2022/07/27 12:43:35;;;;;;;4.55;0.80;;;28.00;53.80;;;;;;4988841;28;20030;-70
2022/07/27 12:46:10;;;;;;;1.80;0.50;;;27.70;49.80;;;;;;4962460;28;21746;-70
2022/07/27 12:48:41;;;;;;;6.05;0.80;;;27.00;53.10;;;;;;4979946;28;20033;-72
2022/07/27 12:51:08;;;;;;;;;;;27.00;56.40;;;;;;4983307;28;20049;-72
2022/07/27 12:53:34;;;;;;;;;;;26.70;55.70;;;;;;4983056;28;20220;-73
2022/07/27 12:56:07;;;;;;;1.98;0.90;;;26.70;56.00;;;;;;4963430;28;20357;-70
2022/07/27 12:58:33;;;;;;;1.30;0.70;;;27.00;56.10;;;;;;4991852;28;20464;-73
2022/07/27 13:00:59;;;;;;;2.45;0.60;;;27.20;53.70;;;;;;4977617;28;20049;-73
2022/07/27 13:03:25;;;;;;;2.60;0.60;;;27.50;51.30;;;;;;4987730;28;20442;-69
2022/07/27 13:05:51;;;;;;;2.58;0.85;;;27.70;50.40;;;;;;4971164;28;20030;-71
2022/07/27 13:08:30;;;;;;;2.92;0.90;;;28.20;50.60;;;;;;4781322;28;10000495;-71
2022/07/27 13:10:59;;;;;;;0.98;0.80;;;28.20;53.10;;;;;;4963678;28;20628;-71
2022/07/27 13:13:25;;;;;;;1.83;0.63;;;28.60;51.20;;;;;;4986627;28;20363;-71
2022/07/27 13:15:51;;;;;;;2.83;0.45;;;28.80;51.90;;;;;;4985425;28;20048;-71
2022/07/27 13:18:16;;;;;;;2.65;1.10;;;28.90;45.90;;;;;;4984598;28;20117;-71
2022/07/27 13:20:42;;;;;;;1.77;0.82;;;29.10;47.50;;;;;;4979741;28;20066;-71
2022/07/27 13:23:08;;;;;;;2.70;0.85;;;29.20;49.00;;;;;;4984288;28;20587;-71
2022/07/27 13:25:33;;;;;;;1.75;0.65;;;29.20;49.60;;;;;;4985059;28;20096;-71
2022/07/27 13:27:59;;;;;;;2.95;0.60;;;29.10;44.40;;;;;;4989170;28;20690;-71
2022/07/27 13:30:25;;;;;;;3.83;0.70;;;28.70;45.60;;;;;;4989644;28;20038;-71
2022/07/27 13:32:51;;;;;;;2.28;0.88;;;28.30;45.40;;;;;;4983744;28;20241;-71
2022/07/27 13:35:16;;;;;;;0.95;0.50;;;28.20;47.40;;;;;;4975850;28;20465;-71
2022/07/27 13:37:42;;;;;;;1.60;0.65;;;28.20;46.90;;;;;;4995328;28;20034;-71
2022/07/27 13:40:09;;;;;;;1.08;0.60;;;28.00;48.10;;;;;;4987262;28;20030;-71
2022/07/27 13:42:35;;;;;;;3.05;0.75;;;28.10;46.90;;;;;;4984381;28;20037;-71
2022/07/27 13:45:01;;;;;;;1.55;0.68;;;28.10;47.80;;;;;;4980245;28;20026;-71
2022/07/27 13:47:27;;;;;;;2.88;0.70;;;27.80;45.50;;;;;;4990124;28;20495;-72
2022/07/27 13:49:53;;;;;;;1.58;0.52;;;27.50;49.20;;;;;;4994342;28;20382;-71
2022/07/27 13:52:19;;;;;;;2.83;0.40;;;27.40;49.10;;;;;;4998141;28;20124;-71
2022/07/27 13:54:45;;;;;;;2.28;0.60;;;27.50;48.20;;;;;;4990069;28;20119;-72